Time;durP1;ratioP1;P1;durP2;ratioP2;P2;SDS_P1;SDS_P2;PMS_P1;PMS_P2;Temp;Humidity;BMP_temperature;BMP_pressure;BME280_temperature;BME280_humidity;BME280_pressure;Samples;Min_cycle;Max_cycle;Signal;HPM_P1;HPM_P2
2021/09/15 00:02:31;;;;;;;;;24.75;24.50;;;;;19.67;62.70;101260.50;4878305;29;8906;-68
2021/09/15 00:05:27;;;;;;;;;23.75;23.50;;;;;19.59;63.36;101261.59;4888775;29;8888;-70
2021/09/15 00:08:22;;;;;;;;;22.00;22.00;;;;;19.53;63.59;101265.06;4884323;29;8885;-69
2021/09/15 00:11:19;;;;;;;;;27.25;26.75;;;;;19.43;63.57;101267.34;4896852;29;8933;-69
2021/09/15 00:14:15;;;;;;;;;24.00;24.00;;;;;19.35;64.45;101268.41;4896717;29;8989;-70
2021/09/15 00:17:10;;;;;;;;;26.50;24.00;;;;;19.30;64.60;101260.31;4896904;29;8889;-70
2021/09/15 00:20:08;;;;;;;;;23.75;23.50;;;;;19.15;65.43;101261.28;4895434;29;8873;-69
2021/09/15 00:23:03;;;;;;;;;22.00;21.00;;;;;19.12;65.20;101256.44;4892833;29;8898;-70
2021/09/15 00:25:59;;;;;;;;;22.50;22.50;;;;;19.12;65.26;101254.44;4894846;29;8868;-70
2021/09/15 00:28:54;;;;;;;;;25.50;24.00;;;;;19.11;65.64;101252.81;4896470;29;8881;-70
2021/09/15 00:31:50;;;;;;;;;27.67;27.67;;;;;19.13;65.77;101249.63;4874779;29;9614;-70
2021/09/15 00:34:22;;;;;;;;;23.50;23.50;;;;;19.05;66.24;101256.31;4879194;29;9093;-70
2021/09/15 00:37:17;;;;;;;;;30.50;29.75;;;;;19.02;65.96;101255.06;4877789;29;8876;-70
2021/09/15 00:39:46;;;;;;;;;21.50;20.75;;;;;19.02;66.29;101252.28;4862367;29;8884;-70
2021/09/15 00:42:41;;;;;;;;;24.00;24.00;;;;;18.96;66.31;101258.56;4877255;29;9742;-68
2021/09/15 00:45:37;;;;;;;;;24.67;23.67;;;;;18.86;66.73;101249.59;4880166;29;9046;-69
2021/09/15 00:48:33;;;;;;;;;21.25;20.25;;;;;18.83;67.05;101258.72;4882131;29;8991;-69
2021/09/15 00:51:34;;;;;;;;;27.00;24.67;;;;;18.72;67.23;101265.34;4881221;29;8883;-69
2021/09/15 00:54:30;;;;;;;;;22.50;22.50;;;;;18.81;67.14;101263.91;4869650;29;9202;-69
2021/09/15 00:57:25;;;;;;;;;28.67;27.67;;;;;18.71;67.11;101261.75;4869704;29;8867;-68
2021/09/15 01:00:21;;;;;;;;;26.33;26.33;;;;;18.59;67.88;101270.28;4888032;29;9373;-68
2021/09/15 01:03:16;;;;;;;;;26.67;26.67;;;;;18.55;68.05;101258.97;4899940;29;9098;-69
2021/09/15 01:06:12;;;;;;;;;32.67;30.00;;;;;18.59;68.45;101259.06;4899998;29;9451;-69
2021/09/15 01:09:08;;;;;;;;;26.00;26.00;;;;;18.52;68.21;101265.34;4899824;29;9125;-70
2021/09/15 01:12:04;;;;;;;;;24.00;24.00;;;;;18.41;68.67;101267.13;4899705;29;8857;-69
2021/09/15 01:14:33;;;;;;;;;25.67;25.67;;;;;18.47;68.29;101262.84;4900673;29;9228;-69
2021/09/15 01:17:29;;;;;;;;;26.67;26.67;;;;;18.53;68.71;101266.16;4899714;29;9050;-68
2021/09/15 01:20:24;;;;;;;;;20.25;20.25;;;;;18.61;66.96;101279.09;4899545;29;9036;-69
2021/09/15 01:22:52;;;;;;;;;19.25;19.25;;;;;18.72;66.41;101263.34;4900734;29;9639;-68
2021/09/15 01:25:47;;;;;;;;;25.50;24.00;;;;;18.78;65.71;101270.25;4883878;29;8869;-69
2021/09/15 01:28:43;;;;;;;;;19.25;19.25;;;;;18.87;65.32;101272.81;4899541;29;8873;-69
2021/09/15 01:31:38;;;;;;;;;21.00;21.00;;;;;18.97;64.91;101277.81;4899063;29;8881;-70
2021/09/15 01:34:05;;;;;;;;;14.00;14.00;;;;;19.04;64.53;101275.13;4900477;29;8873;-70
2021/09/15 01:37:02;;;;;;;;;16.00;16.00;;;;;18.96;64.89;101275.38;4899401;29;8889;-70
2021/09/15 01:39:58;;;;;;;;;16.50;16.50;;;;;18.82;64.79;101273.13;4899046;29;8933;-70
2021/09/15 01:42:53;;;;;;;;;16.50;16.50;;;;;18.78;64.66;101280.66;4886732;29;8893;-70
2021/09/15 01:45:49;;;;;;;;;16.75;16.75;;;;;18.72;64.59;101285.78;4886852;29;9662;-70
2021/09/15 01:48:45;;;;;;;;;15.50;15.00;;;;;18.79;64.61;101282.28;4898954;29;8873;-69
2021/09/15 01:51:41;;;;;;;;;13.00;13.00;;;;;18.81;63.69;101279.91;4886551;29;8880;-70
2021/09/15 01:54:37;;;;;;;;;21.50;18.75;;;;;18.73;63.53;101294.97;4899080;29;8891;-70
2021/09/15 01:57:33;;;;;;;;;16.50;16.50;;;;;18.78;63.31;101278.66;4898010;29;8861;-70
2021/09/15 02:00:28;;;;;;;;;14.00;14.00;;;;;18.76;63.46;101275.41;4890655;29;8860;-69
2021/09/15 02:03:16;;;;;;;;;12.75;12.75;;;;;18.81;63.77;101279.91;4881248;29;8880;-69
2021/09/15 02:06:11;;;;;;;;;13.50;13.25;;;;;18.79;63.36;101282.28;4880170;29;8914;-69
2021/09/15 02:09:07;;;;;;;;;13.00;12.25;;;;;18.59;63.89;101295.47;4880436;29;8952;-70
2021/09/15 02:12:03;;;;;;;;;17.75;17.75;;;;;18.54;63.89;101299.38;4880117;29;8990;-69
2021/09/15 02:14:59;;;;;;;;;12.50;12.50;;;;;18.46;63.97;101292.03;4880973;29;8872;-70
2021/09/15 02:17:54;;;;;;;;;15.00;15.00;;;;;18.48;63.93;101300.88;4879855;29;8962;-70
2021/09/15 02:20:50;;;;;;;;;15.50;15.50;;;;;18.38;63.66;101295.88;4879928;29;8894;-70
2021/09/15 02:23:45;;;;;;;;;17.00;15.75;;;;;18.51;63.69;101302.94;4879874;29;9634;-70
2021/09/15 02:26:41;;;;;;;;;17.75;17.00;;;;;18.30;63.67;101308.91;4879604;29;8903;-70
2021/09/15 02:29:36;;;;;;;;;14.75;14.75;;;;;18.28;63.91;101310.47;4863745;29;8905;-69
2021/09/15 02:32:32;;;;;;;;;13.50;13.50;;;;;18.41;63.35;101311.94;4898385;29;8946;-68
2021/09/15 02:35:02;;;;;;;;;14.75;14.75;;;;;18.19;63.95;101312.69;4899345;29;8881;-71
2021/09/15 02:37:57;;;;;;;;;17.75;17.75;;;;;18.24;63.88;101318.78;4898226;29;8849;-70
2021/09/15 02:40:53;;;;;;;;;18.00;18.00;;;;;18.15;64.33;101322.97;4885520;29;8857;-70
2021/09/15 02:43:48;;;;;;;;;16.50;16.50;;;;;18.14;64.31;101324.97;4898512;29;9702;-70
2021/09/15 02:46:44;;;;;;;;;17.50;17.50;;;;;17.96;64.38;101329.38;4898139;29;8877;-68
2021/09/15 02:49:40;;;;;;;;;19.50;19.00;;;;;18.14;63.94;101332.56;4897676;29;8885;-69
2021/09/15 02:52:35;;;;;;;;;18.75;18.50;;;;;18.03;64.29;101333.16;4897715;29;8881;-69
2021/09/15 02:55:31;;;;;;;;;21.75;20.25;;;;;17.95;64.42;101328.56;4897886;29;8900;-68
2021/09/15 02:57:58;;;;;;;;;16.75;16.75;;;;;17.90;64.65;101331.66;4898777;29;8869;-69
2021/09/15 03:00:54;;;;;;;;;19.75;19.75;;;;;17.79;64.67;101336.19;4889517;29;8861;-68
2021/09/15 03:03:49;;;;;;;;;14.25;14.25;;;;;17.96;64.40;101343.38;4897610;29;8987;-69
2021/09/15 03:06:45;;;;;;;;;18.25;18.25;;;;;17.98;64.21;101343.81;4895662;29;8964;-69
2021/09/15 03:09:40;;;;;;;;;20.67;19.00;;;;;17.88;64.42;101348.00;4860240;29;9065;-69
2021/09/15 03:12:36;;;;;;;;;18.00;18.00;;;;;17.90;64.47;101350.41;4863096;29;8950;-68
2021/09/15 03:15:32;;;;;;;;;15.50;15.50;;;;;17.84;64.57;101352.69;4897760;29;8857;-69
2021/09/15 03:18:27;;;;;;;;;16.25;16.25;;;;;17.87;64.36;101349.16;4897458;29;8880;-68
2021/09/15 03:21:23;;;;;;;;;20.00;20.00;;;;;17.85;64.28;101342.28;4884904;29;8887;-70
2021/09/15 03:24:18;;;;;;;;;22.00;22.00;;;;;17.80;64.58;101351.00;4872718;29;8879;-70
2021/09/15 03:27:14;;;;;;;;;13.67;13.67;;;;;17.77;64.55;101349.72;4880421;29;9073;-70
2021/09/15 03:30:10;;;;;;;;;22.00;22.00;;;;;17.82;64.36;101354.22;4877192;29;8956;-70
2021/09/15 03:33:05;;;;;;;;;22.33;22.33;;;;;17.69;64.82;101356.28;4894830;29;9205;-70
2021/09/15 03:36:04;;;;;;;;;25.67;24.67;;;;;17.81;64.67;101359.00;4883481;29;9317;-69
2021/09/15 03:39:00;;;;;;;;;22.67;22.67;;;;;17.81;64.49;101355.41;4884955;29;9110;-68
2021/09/15 03:41:55;;;;;;;;;20.00;19.67;;;;;17.80;64.70;101357.41;4887326;29;9043;-68
2021/09/15 03:44:51;;;;;;;;;22.67;22.67;;;;;17.72;64.99;101356.41;4886622;29;9138;-69
2021/09/15 03:47:48;;;;;;;;;24.33;24.33;;;;;17.57;65.03;101360.00;4885386;29;9216;-70
2021/09/15 03:50:47;;;;;;;;;26.33;26.33;;;;;17.70;65.14;101369.94;4884347;29;9384;-70
2021/09/15 03:53:42;;;;;;;;;24.00;24.00;;;;;17.52;65.51;101363.88;4881490;29;9104;-70
2021/09/15 03:56:38;;;;;;;;;28.25;28.25;;;;;17.63;65.38;101374.50;4878193;29;9044;-70
2021/09/15 03:59:34;;;;;;;;;23.00;23.00;;;;;17.75;64.96;101377.25;4878098;29;9583;-71
2021/09/15 04:02:29;;;;;;;;;27.00;27.00;;;;;17.80;65.12;101384.56;4878109;29;9421;-70
2021/09/15 04:05:25;;;;;;;;;26.33;26.33;;;;;17.67;65.34;101384.63;4878224;29;9303;-70
2021/09/15 04:08:21;;;;;;;;;22.67;22.67;;;;;17.55;65.71;101383.91;4877306;29;9464;-71
2021/09/15 04:11:18;;;;;;;;;28.33;26.33;;;;;17.61;65.40;101388.06;4874899;29;9506;-71
2021/09/15 04:14:14;;;;;;;;;29.00;29.00;;;;;17.54;65.62;101387.88;4878122;29;9370;-71
2021/09/15 04:17:10;;;;;;;;;37.00;34.25;;;;;17.66;65.42;101398.97;4877896;29;9524;-72
2021/09/15 04:19:52;;;;;;;;;45.00;36.25;;;;;17.59;65.20;101384.81;4880547;29;9945;-74
2021/09/15 04:22:21;;;;;;;;;42.25;36.75;;;;;17.82;64.84;101390.59;4882769;29;9950;-75
2021/09/15 04:34:00;;;;;;;;;31.50;31.00;;;;;18.13;63.79;101404.53;4881685;29;9900;-74
2021/09/15 04:37:05;;;;;;;;;42.25;37.00;;;;;18.06;63.67;101407.16;4882958;29;9598;-74
2021/09/15 04:39:32;;;;;;;;;38.00;33.50;;;;;18.09;64.10;101412.03;4882415;29;9849;-74
2021/09/15 04:42:01;;;;;;;;;29.33;29.33;;;;;18.09;63.91;101402.81;4882693;29;9675;-74
2021/09/15 04:44:48;;;;;;;;;37.00;31.00;;;;;18.24;63.21;101408.38;4882687;29;9535;-74
2021/09/15 04:47:16;;;;;;;;;28.00;27.67;;;;;18.25;63.00;101412.00;4882591;29;9485;-74
2021/09/15 04:49:44;;;;;;;;;22.00;20.67;;;;;18.11;63.22;101400.47;4882152;29;9364;-74
2021/09/15 04:52:11;;;;;;;;;26.33;24.67;;;;;18.43;62.76;101418.81;4882539;29;8991;-75
2021/09/15 04:54:39;;;;;;;;;31.00;30.33;;;;;18.21;62.91;101419.50;4882207;29;8962;-73
2021/09/15 04:57:07;;;;;;;;;20.00;20.00;;;;;18.34;62.61;101421.00;4882340;29;9053;-74
2021/09/15 04:59:36;;;;;;;;;30.00;27.00;;;;;18.28;62.71;101426.06;4865514;29;9047;-75
2021/09/15 05:02:03;;;;;;;;;18.67;18.67;;;;;18.45;62.02;101432.44;4882342;29;8979;-74
2021/09/15 05:04:31;;;;;;;;;18.50;18.50;;;;;18.60;61.86;101437.16;4865515;29;9216;-75
2021/09/15 05:06:59;;;;;;;;;16.25;16.25;;;;;18.68;61.45;101436.16;4881051;29;8883;-75
2021/09/15 05:09:26;;;;;;;;;15.25;13.25;;;;;18.70;61.02;101433.78;4880644;29;8989;-75
2021/09/15 05:11:54;;;;;;;;;15.50;13.50;;;;;18.68;61.23;101444.56;4882103;29;8919;-73
2021/09/15 05:14:28;;;;;;;;;12.75;12.25;;;;;18.77;60.90;101436.75;4881862;29;8879;-74
2021/09/15 05:16:56;;;;;;;;;12.50;12.50;;;;;18.86;60.92;101433.72;4882137;29;8887;-75
2021/09/15 05:19:23;;;;;;;;;15.75;15.25;;;;;18.81;60.87;101448.84;4865237;29;8900;-73
2021/09/15 05:21:55;;;;;;;;;13.75;12.50;;;;;18.83;60.80;101442.88;4881808;29;8902;-75
2021/09/15 05:24:23;;;;;;;;;13.75;13.75;;;;;18.94;60.54;101454.28;4881743;29;8895;-75
2021/09/15 05:26:53;;;;;;;;;12.00;12.00;;;;;18.89;60.38;101455.41;4880736;29;8879;-75
2021/09/15 05:29:21;;;;;;;;;11.50;11.50;;;;;19.03;59.70;101463.31;4880428;29;8896;-74
2021/09/15 05:31:49;;;;;;;;;11.50;10.00;;;;;18.99;59.87;101466.03;4881628;29;8922;-74
2021/09/15 05:34:17;;;;;;;;;14.00;14.00;;;;;19.25;59.07;101459.75;4880555;29;8875;-74
2021/09/15 05:36:45;;;;;;;;;14.25;14.00;;;;;19.46;58.87;101467.72;4881409;29;8884;-75
2021/09/15 05:39:13;;;;;;;;;20.75;18.50;;;;;19.44;58.16;101472.91;4880183;29;8906;-74
2021/09/15 05:41:41;;;;;;;;;13.00;12.67;;;;;19.62;58.00;101474.06;4865452;29;8971;-75
2021/09/15 05:44:08;;;;;;;;;14.25;14.25;;;;;19.74;57.10;101472.28;4880353;29;8890;-74
2021/09/15 05:46:37;;;;;;;;;10.50;10.50;;;;;19.82;57.09;101474.81;4880335;29;9638;-74
2021/09/15 05:49:05;;;;;;;;;11.25;11.25;;;;;19.89;56.38;101486.19;4881231;29;8934;-75
2021/09/15 05:51:32;;;;;;;;;8.75;8.75;;;;;20.04;55.83;101478.81;4881264;29;8891;-75
2021/09/15 05:54:02;;;;;;;;;11.00;11.00;;;;;20.03;55.41;101479.19;4880959;29;8894;-74
2021/09/15 05:56:31;;;;;;;;;10.25;10.25;;;;;20.15;54.56;101487.38;4881251;29;8903;-74
2021/09/15 05:58:59;;;;;;;;;6.75;6.75;;;;;20.26;54.20;101486.38;4875129;29;9002;-73
2021/09/15 06:01:27;;;;;;;;;8.00;8.00;;;;;20.20;52.60;101481.44;4876341;29;8891;-74
2021/09/15 06:04:23;;;;;;;;;6.75;6.75;;;;;20.24;51.80;101491.56;4879147;29;8864;-72
2021/09/15 06:07:20;;;;;;;;;7.00;7.00;;;;;20.32;51.17;101492.50;4862156;29;8874;-72
2021/09/15 06:10:17;;;;;;;;;7.75;7.75;;;;;20.41;51.09;101495.03;4865119;29;8875;-74
2021/09/15 06:13:18;;;;;;;;;7.50;7.50;;;;;20.47;50.49;101488.72;4886707;29;8896;-72
2021/09/15 06:16:13;;;;;;;;;6.50;6.00;;;;;20.63;48.02;101496.97;4872056;29;8884;-72
2021/09/15 06:19:08;;;;;;;;;7.75;7.75;;;;;;;;4848673;29;8907;-73
2021/09/15 06:22:04;;;;;;;;;6.25;6.25;;;;;21.14;46.36;101495.59;4883896;29;8895;-73
2021/09/15 06:24:32;;;;;;;;;5.25;5.25;;;;;21.24;44.62;101495.75;4899097;29;8873;-74
2021/09/15 06:27:28;;;;;;;;;4.75;4.25;;;;;21.38;44.08;101489.47;4882053;29;8993;-73
2021/09/15 06:30:24;;;;;;;;;4.00;4.00;;;;;21.53;43.63;101502.50;4879913;29;8878;-74
2021/09/15 06:33:19;;;;;;;;;3.00;3.00;;;;;21.80;42.55;101496.75;4878680;29;9613;-73
2021/09/15 06:36:16;;;;;;;;;5.50;4.50;;;;;21.61;41.75;101495.75;4880229;29;8879;-72
2021/09/15 06:39:11;;;;;;;;;4.25;4.25;;;;;21.91;42.01;101501.25;4885581;29;8872;-73
2021/09/15 06:42:08;;;;;;;;;6.50;6.50;;;;;21.80;42.25;101496.75;4897584;29;9638;-73
2021/09/15 06:45:04;;;;;;;;;3.75;3.75;;;;;21.95;41.32;101500.50;4885275;29;8947;-74
2021/09/15 06:48:01;;;;;;;;;4.00;4.00;;;;;21.71;40.62;101499.06;4898504;29;8857;-73
2021/09/15 06:50:56;;;;;;;;;6.00;5.25;;;;;21.93;41.25;101498.88;4881387;29;8880;-73
2021/09/15 06:53:24;;;;;;;;;5.25;2.25;;;;;22.12;40.64;101495.03;4863617;29;8884;-72
2021/09/15 06:56:19;;;;;;;;;2.25;2.25;;;;;22.23;40.74;101500.72;4859552;29;8853;-73
2021/09/15 06:58:48;;;;;;;;;3.25;3.25;;;;;22.23;40.43;101495.09;4877850;29;9764;-74
2021/09/15 07:01:17;;;;;;;;;4.60;4.60;;;;;22.44;40.09;101498.06;4861491;29;8946;-74
2021/09/15 07:03:44;;;;;;;;;23.50;20.00;;;;;22.65;39.60;101493.78;4864595;29;8949;-73
2021/09/15 07:06:25;;;;;;;;;4.00;4.00;;;;;22.86;39.32;101496.75;4891660;29;8869;-73
2021/09/15 07:08:53;;;;;;;;;2.40;2.40;;;;;23.06;39.40;101505.66;4852732;29;8980;-73
2021/09/15 07:11:41;;;;;;;;;2.60;2.60;;;;;22.87;38.69;101509.63;4893120;29;9607;-72
2021/09/15 07:14:36;;;;;;;;;4.00;4.00;;;;;22.94;38.95;101501.22;4880577;29;8852;-72
2021/09/15 07:17:06;;;;;;;;;5.20;5.20;;;;;23.27;38.87;101499.31;4878748;29;8868;-72
2021/09/15 07:19:35;;;;;;;;;5.20;5.20;;;;;23.22;38.76;101499.69;4896873;29;8849;-72
2021/09/15 07:22:26;;;;;;;;;5.60;5.60;;;;;23.01;38.40;101503.25;4898319;29;8893;-74
2021/09/15 07:25:32;;;;;;;;;4.80;4.80;;;;;22.61;38.72;101498.56;4889657;29;8906;-71
2021/09/15 07:28:05;;;;;;;;;4.00;4.00;;;;;22.90;39.06;101499.56;4879809;29;8868;-72
2021/09/15 07:30:44;;;;;;;;;4.00;4.00;;;;;23.08;38.89;101499.63;4879888;29;8899;-72
2021/09/15 07:33:12;;;;;;;;;4.40;4.40;;;;;23.26;38.36;101498.50;4862803;29;9014;-73
2021/09/15 07:36:08;;;;;;;;;5.40;5.40;;;;;23.39;38.68;101487.66;4878279;29;8867;-72
2021/09/15 07:39:04;;;;;;;;;4.80;4.80;;;;;23.48;37.43;101496.53;4866799;29;8857;-72
2021/09/15 07:41:32;;;;;;;;;3.00;3.00;;;;;23.48;36.91;101505.00;4862731;29;9630;-73
2021/09/15 07:44:27;;;;;;;;;2.60;2.60;;;;;23.92;36.19;101488.94;4878178;29;8879;-73
2021/09/15 07:47:23;;;;;;;;;3.80;3.80;;;;;23.52;35.35;101497.34;4876509;29;8883;-73
2021/09/15 07:50:19;;;;;;;;;2.20;2.20;;;;;23.54;35.86;101497.78;4871444;29;8857;-73
2021/09/15 07:53:14;;;;;;;;;3.80;3.80;;;;;24.01;35.39;101495.00;4882045;29;8892;-73
2021/09/15 07:55:42;;;;;;;;;8.80;8.80;;;;;23.89;35.54;101499.03;4884209;29;9612;-71
2021/09/15 07:58:38;;;;;;;;;8.60;8.60;;;;;24.12;35.02;101492.97;4896914;29;8895;-72
2021/09/15 08:01:33;;;;;;;;;11.60;11.60;;;;;24.02;35.80;101482.50;4884354;29;8853;-72
2021/09/15 08:04:29;;;;;;;;;7.00;7.00;;;;;23.81;36.41;101478.44;4895107;29;8919;-71
2021/09/15 08:07:25;;;;;;;;;7.60;6.80;;;;;23.99;35.93;101478.44;4896830;29;9610;-72
2021/09/15 08:10:20;;;;;;;;;13.00;13.00;;;;;23.92;36.57;101486.09;4891001;29;8857;-72
2021/09/15 08:13:20;;;;;;;;;14.20;12.60;;;;;24.21;36.30;101492.56;4867524;29;8938;-72
2021/09/15 08:16:15;;;;;;;;;13.80;12.60;;;;;24.53;35.77;101484.06;4870422;29;8968;-71
2021/09/15 08:19:11;;;;;;;;;14.80;14.00;;;;;24.11;34.79;101488.53;4893778;29;8857;-71
2021/09/15 08:21:40;;;;;;;;;4.60;4.40;;;;;24.02;33.90;101494.59;4878173;29;8875;-72
2021/09/15 08:24:36;;;;;;;;;4.20;4.20;;;;;24.59;33.36;101490.91;4877898;29;8876;-72
2021/09/15 08:27:31;;;;;;;;;6.40;5.60;;;;;24.61;33.55;101486.47;4865569;29;8859;-72
2021/09/15 08:30:27;;;;;;;;;4.00;4.00;;;;;24.52;35.53;101485.28;4876822;29;9614;-71
2021/09/15 08:33:22;;;;;;;;;9.00;8.00;;;;;24.36;35.79;101483.69;4880114;29;8876;-71
2021/09/15 08:36:18;;;;;;;;;6.20;6.20;;;;;24.90;33.43;101477.88;4878574;29;8868;-71
2021/09/15 08:39:14;;;;;;;;;9.20;8.80;;;;;24.51;33.98;101490.13;4859722;29;8843;-71
2021/09/15 08:42:11;;;;;;;;;14.20;13.60;;;;;24.66;33.20;101488.88;4859733;29;8867;-71
2021/09/15 08:44:40;;;;;;;;;13.40;13.40;;;;;24.35;33.04;101478.44;4862312;29;9633;-72
2021/09/15 08:47:09;;;;;;;;;9.80;9.80;;;;;24.52;35.10;101474.75;4861341;29;8957;-72
2021/09/15 08:49:38;;;;;;;;;9.80;9.80;;;;;25.04;33.26;101477.84;4858931;29;8897;-71
2021/09/15 08:52:07;;;;;;;;;8.60;8.60;;;;;25.12;34.49;101476.59;4860396;29;8974;-71
2021/09/15 08:54:35;;;;;;;;;10.80;10.80;;;;;25.17;32.64;101462.00;4860405;29;8957;-71
2021/09/15 08:57:03;;;;;;;;;14.80;14.40;;;;;24.87;32.96;101462.53;4860469;29;8878;-72
2021/09/15 08:59:32;;;;;;;;;34.75;32.50;;;;;25.44;34.85;101467.09;4859992;29;8900;-72
2021/09/15 09:02:06;;;;;;;;;9.40;9.40;;;;;25.45;32.81;101474.38;4814134;29;8905;-72
2021/09/15 09:04:50;;;;;;;;;6.60;6.60;;;;;25.26;32.48;101470.03;4860251;29;8870;-72
2021/09/15 09:07:20;;;;;;;;;7.00;7.00;;;;;25.79;32.34;101474.56;4831982;29;8878;-71
2021/09/15 09:09:50;;;;;;;;;5.60;5.60;;;;;26.14;30.85;101464.13;4847075;29;8878;-71
2021/09/15 09:12:26;;;;;;;;;13.60;13.60;;;;;25.63;30.06;101460.91;4847784;29;8866;-72
2021/09/15 09:15:27;;;;;;;;;11.20;11.20;;;;;25.49;31.26;101472.34;4863271;29;8866;-72
2021/09/15 09:18:02;;;;;;;;;14.40;14.40;;;;;25.90;30.97;101477.31;4863630;29;8882;-72
2021/09/15 09:20:37;;;;;;;;;10.20;10.20;;;;;26.08;30.31;101477.97;4848076;29;9001;-67
2021/09/15 09:23:14;;;;;;;;;10.00;10.00;;;;;26.20;28.60;101470.97;4863403;29;8890;-71
2021/09/15 09:25:53;;;;;;;;;2.40;2.40;;;;;26.28;28.64;101470.47;4863190;29;8929;-72
2021/09/15 09:28:41;;;;;;;;;8.20;8.20;;;;;26.44;29.12;101466.28;4863154;29;8962;-72
2021/09/15 09:31:12;;;;;;;;;8.00;8.00;;;;;26.28;28.18;101464.81;4863109;29;8858;-72
2021/09/15 09:33:40;;;;;;;;;21.00;21.00;;;;;26.42;27.60;101465.91;4863002;29;8874;-72
2021/09/15 09:36:10;;;;;;;;;14.20;13.80;;;;;26.33;26.16;101455.03;4863123;29;9562;-73
2021/09/15 09:38:44;;;;;;;;;16.40;15.80;;;;;26.34;26.48;101465.97;4862711;29;8870;-72
2021/09/15 09:41:15;;;;;;;;;9.20;9.00;;;;;26.10;23.81;101460.53;4862836;29;8878;-72
2021/09/15 09:43:48;;;;;;;;;5.40;5.40;;;;;26.36;23.03;101461.91;4862919;29;8906;-72
2021/09/15 09:46:20;;;;;;;;;7.00;7.00;;;;;26.81;24.86;101463.41;4862510;29;9633;-72
2021/09/15 09:48:56;;;;;;;;;12.60;11.80;;;;;26.95;24.87;101461.63;4862708;29;8879;-72
2021/09/15 09:51:37;;;;;;;;;25.60;23.60;;;;;26.47;25.18;101459.78;4862402;29;8924;-72
2021/09/15 09:54:06;;;;;;;;;15.80;13.60;;;;;26.86;25.71;101453.66;4861454;29;8882;-72
2021/09/15 09:56:36;;;;;;;;;15.80;15.60;;;;;26.56;25.38;101451.59;4862594;29;8909;-72
2021/09/15 09:59:05;;;;;;;;;15.00;15.00;;;;;26.34;26.02;101448.94;4853712;29;8888;-71
2021/09/15 10:02:01;;;;;;;;;10.00;9.60;;;;;26.32;27.29;101457.06;4864995;29;9002;-72
2021/09/15 10:04:56;;;;;;;;;14.20;13.40;;;;;26.87;27.13;101447.53;4894583;29;8864;-72
2021/09/15 10:07:52;;;;;;;;;22.80;20.80;;;;;26.86;26.37;101440.25;4892242;29;8962;-71
2021/09/15 10:10:50;;;;;;;;;12.60;11.20;;;;;26.97;26.90;101436.47;4867179;29;8869;-71
2021/09/15 10:13:48;;;;;;;;;9.60;9.20;;;;;27.56;28.41;101439.69;4894324;29;8877;-71
2021/09/15 10:16:51;;;;;;;;;10.80;10.60;;;;;27.19;25.82;101434.16;4897801;29;9063;-71
2021/09/15 10:19:53;;;;;;;;;10.80;10.80;;;;;26.88;26.28;101425.63;4898080;29;8881;-71
2021/09/15 10:22:34;;;;;;;;;9.00;8.80;;;;;26.93;25.86;101436.53;4889814;29;8877;-71
2021/09/15 10:25:39;;;;;;;;;9.80;9.80;;;;;27.13;23.93;101437.47;4893453;29;8876;-71
2021/09/15 10:29:13;;;;;;;;;9.60;9.60;;;;;27.55;22.94;101432.41;4875952;29;8862;-71
2021/09/15 10:32:13;;;;;;;;;14.20;12.20;;;;;27.79;25.06;101432.44;4880275;29;8939;-71
2021/09/15 10:35:09;;;;;;;;;5.40;5.40;;;;;27.63;23.82;101439.56;4882013;29;8864;-72
2021/09/15 10:38:05;;;;;;;;;6.40;5.40;;;;;27.74;21.73;101436.56;4896052;29;8861;-72
2021/09/15 10:41:20;;;;;;;;;5.80;5.80;;;;;27.61;21.56;101441.25;4880027;29;8867;-72
2021/09/15 10:44:16;;;;;;;;;7.20;7.20;;;;;27.80;22.44;101429.16;4878597;29;8863;-72
2021/09/15 10:46:45;;;;;;;;;9.40;9.40;;;;;28.02;21.10;101437.31;4879980;29;8892;-72
2021/09/15 10:49:42;;;;;;;;;10.00;10.00;;;;;28.31;20.51;101424.22;4878215;29;8897;-72
2021/09/15 10:52:43;;;;;;;;;10.40;8.60;;;;;27.77;20.07;101437.75;4863853;29;8868;-72
2021/09/15 10:55:41;;;;;;;;;8.20;8.20;;;;;27.67;20.77;101428.97;4867913;29;8865;-72
2021/09/15 10:58:44;;;;;;;;;7.40;7.40;;;;;27.64;20.59;101429.00;4871305;29;8953;-72
2021/09/15 11:01:40;;;;;;;;;6.00;6.00;;;;;28.14;19.63;101431.00;4862750;29;8887;-72
2021/09/15 11:04:36;;;;;;;;;8.00;8.00;;;;;28.20;20.58;101427.22;4866821;29;8868;-71
2021/09/15 11:07:47;;;;;;;;;8.20;7.40;;;;;28.51;20.48;101430.69;4876142;29;8939;-71
2021/09/15 11:10:48;;;;;;;;;11.40;11.40;;;;;28.77;20.04;101426.13;4874598;29;9280;-71
2021/09/15 11:13:47;;;;;;;;;10.60;10.60;;;;;28.26;19.09;101422.63;4874487;29;8892;-71
2021/09/15 11:16:44;;;;;;;;;6.00;6.00;;;;;28.18;19.92;101426.06;4888643;29;8892;-71
2021/09/15 11:19:32;;;;;;;;;12.60;11.80;;;;;29.02;20.48;101424.78;4886630;29;8868;-72
2021/09/15 11:22:03;;;;;;;;;6.60;6.00;;;;;28.56;18.14;101420.88;4869714;29;9365;-72
2021/09/15 11:24:32;;;;;;;;;11.80;11.80;;;;;28.76;17.82;101418.03;4872449;29;9682;-72
2021/09/15 11:27:28;;;;;;;;;37.20;28.00;;;;;29.06;17.13;101403.53;4883313;29;8959;-72
2021/09/15 11:30:10;;;;;;;;;6.40;6.40;;;;;28.49;16.34;101406.78;4879522;29;8886;-71
2021/09/15 11:33:09;;;;;;;;;7.40;7.40;;;;;28.92;17.67;101400.22;4887725;29;8857;-72
2021/09/15 11:36:10;;;;;;;;;6.20;6.20;;;;;29.06;18.18;101389.31;4896850;29;8861;-72
2021/09/15 11:39:07;;;;;;;;;2.20;2.20;;;;;29.07;16.89;101392.97;4879453;29;9589;-71
2021/09/15 11:42:04;;;;;;;;;4.20;4.20;;;;;29.12;17.43;101385.91;4874730;29;8876;-72
2021/09/15 11:45:14;;;;;;;;;5.60;5.60;;;;;28.79;16.20;101382.97;4881965;29;8845;-72
2021/09/15 11:47:59;;;;;;;;;5.40;4.60;;;;;28.94;19.20;101372.91;4881359;29;8869;-71
2021/09/15 11:50:56;;;;;;;;;12.00;10.60;;;;;29.26;16.84;101369.28;4859996;29;8888;-71
2021/09/15 11:54:01;;;;;;;;;7.60;7.60;;;;;29.58;18.17;101379.13;4877213;29;8874;-71
2021/09/15 11:57:08;;;;;;;;;6.80;6.80;;;;;28.87;15.80;101369.38;4878796;29;8903;-71
2021/09/15 12:00:04;;;;;;;;;2.00;2.00;;;;;29.07;15.69;101368.13;4860093;29;8888;-71
2021/09/15 12:03:04;;;;;;;;;5.00;5.00;;;;;29.02;16.95;101362.94;4860208;29;8884;-71
2021/09/15 12:06:02;;;;;;;;;6.20;5.00;;;;;29.89;18.02;101346.09;4861048;29;8873;-72
2021/09/15 12:08:58;;;;;;;;;9.20;8.20;;;;;29.32;16.74;101350.44;4869814;29;8889;-71
2021/09/15 12:11:55;;;;;;;;;3.20;3.20;;;;;29.34;15.62;101332.88;4859504;29;8894;-73
2021/09/15 12:14:56;;;;;;;;;5.00;5.00;;;;;29.40;16.43;101330.31;4847294;29;8878;-73
2021/09/15 12:18:00;;;;;;;;;2.60;2.60;;;;;29.48;14.97;101331.72;4881626;29;8880;-74
2021/09/15 12:20:56;;;;;;;;;5.60;5.00;;;;;29.53;17.24;101328.38;4873143;29;8876;-71
2021/09/15 12:24:02;;;;;;;;;5.20;5.20;;;;;29.53;18.11;101317.78;4858789;29;8888;-71
2021/09/15 12:27:12;;;;;;;;;4.20;4.20;;;;;28.88;14.94;101306.31;4883159;29;8915;-72
2021/09/15 12:30:13;;;;;;;;;2.00;2.00;;;;;29.04;15.76;101309.19;4891318;29;8891;-73
2021/09/15 12:33:09;;;;;;;;;10.00;10.00;;;;;29.63;15.59;101313.84;4877541;29;8876;-71
2021/09/15 12:36:16;;;;;;;;;1.00;1.00;;;;;30.02;15.95;101314.81;4877489;29;8864;-71
2021/09/15 12:38:55;;;;;;;;;2.40;1.00;;;;;29.98;15.29;101307.59;4865256;29;8868;-72
2021/09/15 12:41:28;;;;;;;;;2.40;2.40;;;;;30.15;15.34;101309.97;4894955;29;8907;-71
2021/09/15 12:44:34;;;;;;;;;3.00;3.00;;;;;30.33;15.17;101303.75;4883327;29;8887;-71
2021/09/15 12:47:06;;;;;;;;;12.60;12.60;;;;;30.35;15.70;101303.28;4883268;29;8888;-71
2021/09/15 12:50:12;;;;;;;;;3.40;3.40;;;;;30.18;15.74;101303.34;4887165;29;8904;-72
2021/09/15 12:53:08;;;;;;;;;2.40;2.40;;;;;30.11;15.84;101303.56;4875397;29;8873;-71
2021/09/15 12:56:08;;;;;;;;;3.20;2.40;;;;;30.49;15.81;101297.13;4877672;29;9721;-71
2021/09/15 12:59:26;;;;;;;;;6.60;6.60;;;;;30.34;16.30;101318.81;4890189;29;8977;-71
2021/09/15 13:02:29;;;;;;;;;3.20;3.00;;;;;30.67;18.26;101302.31;4889500;29;8969;-71
2021/09/15 13:05:24;;;;;;;;;3.80;3.80;;;;;30.57;17.20;101298.53;4887802;29;8864;-71
2021/09/15 13:08:29;;;;;;;;;6.20;6.20;;;;;30.70;17.13;101302.22;4885264;29;8888;-71
2021/09/15 13:11:25;;;;;;;;;21.40;21.40;;;;;30.57;16.70;101295.66;4875429;29;8908;-71